EFUT

Utti Air Base Airport

Utti / Valkeala, Finland
METAR EFUT 150620Z AUTO 33002KT 9999 OVC003 M09/M10 Q1036
Observed Flight Rules
Dec-15 @ 06:20 UTC (29 minutes ago) Instrument Flight Rules
Wind Visibility Clouds
330° at 2 knots 10,000+ meters
  • Overcast at 300' AGL
Temperatures Readings
Current -9°C / 16°F
Dewpoint -10°C / 14°F
Humidity 93%
Altimeter 30.59" Hg
Pressure 1036 hPa
Elevation 100
METAR EFUT 150620Z AUTO 33002KT 9999 OVC003 M09/M10 Q1036
Observed Flight Rules
Dec-15 @ 06:20 UTC
(29 minutes ago)
LIFR
Wind Visibility
330° at 2 knots 10,000+ meters
Clouds
  • Overcast at 300' AGL
Temperature Dewpoint
-9°C / 16°F -10°C / 14°F
Humidity Altimeter Pressure
93% 30.59" Hg 1036 hPa